Loncopue, Argentina
Current Conditions -  °F | °C
As of 10:00 PM on Saturday 20 Dec 2014 (Local Time) from SCQP Reporting Station
Few Clouds Few Clouds  
Wind Chill: 50°   Ceiling: Unl
Heat Index: 50°   Visibility: 6mi
Dew Point: 41°   Wind: 8mph
Humidity: 71%   Direction: 250°WSW
Pressure: 30.12"   Gusts: NA
Location:  38.07°S, 70.62°W
Report Text: SCQP 210100Z 25007KT 9999 FEW037 10/05 Q1020
Loading
Personal Weather Stations






























Interactive Weather Map New forecast layout! Learn more

10-Day Weather Forecast

Advertisements
Track Severe Weather on mobile